Time;durP1;ratioP1;P1;durP2;ratioP2;P2;SDS_P1;SDS_P2;PMS_P1;PMS_P2;Temp;Humidity;BMP_temperature;BMP_pressure;BME280_temperature;BME280_humidity;BME280_pressure;Samples;Min_cycle;Max_cycle;Signal;HPM_P1;HPM_P2
2021/06/08 00:00:04;;;;;;;6.03;3.85;;;23.90;43.60;;;;;;4283278;33;20603;-39
2021/06/08 00:02:30;;;;;;;7.78;3.97;;;23.90;43.80;;;;;;4283280;33;20076;-38
2021/06/08 00:04:56;;;;;;;6.90;3.92;;;24.00;43.60;;;;;;4283027;33;20075;-37
2021/06/08 00:07:23;;;;;;;7.47;3.87;;;24.00;43.60;;;;;;4283350;33;20571;-37
2021/06/08 00:09:49;;;;;;;6.53;3.20;;;24.00;43.60;;;;;;4283280;33;20107;-37
2021/06/08 00:12:16;;;;;;;9.07;3.80;;;23.90;43.60;;;;;;4281971;33;20072;-38
2021/06/08 00:14:42;;;;;;;8.02;2.97;;;23.90;43.70;;;;;;4293033;33;20517;-38
2021/06/08 00:17:09;;;;;;;8.68;3.55;;;23.80;43.70;;;;;;4297350;33;20139;-37
2021/06/08 00:19:35;;;;;;;6.25;3.50;;;23.70;43.80;;;;;;4297423;33;21092;-37
2021/06/08 00:22:02;;;;;;;7.25;3.62;;;23.60;44.10;;;;;;4297386;33;20083;-38
2021/06/08 00:24:28;;;;;;;7.40;3.03;;;23.60;44.30;;;;;;4297613;33;20083;-37
2021/06/08 00:26:55;;;;;;;10.40;3.17;;;23.60;44.50;;;;;;4335359;32;20507;-37
2021/06/08 00:29:21;;;;;;;5.18;3.00;;;23.50;44.70;;;;;;4343616;32;20058;-37
2021/06/08 00:31:48;;;;;;;9.38;3.33;;;23.50;44.70;;;;;;4343791;32;20153;-37
2021/06/08 00:34:14;;;;;;;6.72;3.65;;;23.50;45.20;;;;;;4343657;33;20567;-37
2021/06/08 00:36:41;;;;;;;7.32;3.47;;;23.50;45.20;;;;;;4343927;32;20096;-38
2021/06/08 00:39:07;;;;;;;7.47;3.55;;;23.50;45.30;;;;;;4344140;33;20082;-38
2021/06/08 00:41:40;;;;;;;6.87;3.70;;;23.60;45.20;;;;;;4343438;32;20073;-38
2021/06/08 00:44:15;;;;;;;10.07;3.37;;;23.60;45.40;;;;;;4343747;32;20101;-38
2021/06/08 00:46:41;;;;;;;7.00;3.65;;;23.60;45.40;;;;;;4342922;32;20527;-38
2021/06/08 00:49:08;;;;;;;7.40;4.07;;;23.60;45.30;;;;;;4343381;32;20511;-38
2021/06/08 00:51:34;;;;;;;7.00;3.85;;;23.60;45.40;;;;;;4343284;32;20075;-38
2021/06/08 00:54:10;;;;;;;33.78;4.87;;;23.70;45.40;;;;;;4343686;32;20079;-38
2021/06/08 00:56:39;;;;;;;8.90;3.53;;;23.80;45.20;;;;;;4343573;32;20069;-38
2021/06/08 00:59:05;;;;;;;30.55;4.03;;;23.90;45.10;;;;;;4343785;33;20512;-38
2021/06/08 01:01:32;;;;;;;22.35;5.00;;;24.00;45.00;;;;;;4343726;32;20096;-38
2021/06/08 01:04:01;;;;;;;16.12;4.20;;;24.00;45.00;;;;;;4330134;33;20206;-38
2021/06/08 01:06:31;;;;;;;14.45;3.72;;;24.10;45.10;;;;;;4343619;32;20067;-39
2021/06/08 01:08:57;;;;;;;5.03;2.92;;;24.20;45.10;;;;;;4343520;32;20066;-38
2021/06/08 01:11:24;;;;;;;7.53;3.00;;;24.30;45.00;;;;;;4342997;32;20096;-38
2021/06/08 01:13:50;;;;;;;4.62;2.45;;;24.50;45.10;;;;;;4354384;32;20094;-37
2021/06/08 01:16:17;;;;;;;11.02;6.10;;;24.60;44.70;;;;;;4358115;32;20062;-39
2021/06/08 01:18:43;;;;;;;11.02;4.35;;;24.70;44.80;;;;;;4358220;32;20070;-39
2021/06/08 01:21:11;;;;;;;13.13;4.93;;;24.80;44.70;;;;;;4358084;32;20070;-37
2021/06/08 01:23:38;;;;;;;9.45;4.05;;;24.90;44.60;;;;;;4358422;32;20067;-37
2021/06/08 01:26:05;;;;;;;13.00;5.07;;;25.00;44.40;;;;;;4344391;32;20166;-38
2021/06/08 01:28:32;;;;;;;11.00;3.70;;;25.00;43.90;;;;;;4344363;32;20081;-38
2021/06/08 01:31:04;;;;;;;14.57;4.47;;;25.00;44.00;;;;;;4344114;32;20155;-37
2021/06/08 01:33:30;;;;;;;8.80;3.03;;;25.20;44.00;;;;;;4343992;32;20062;-39
2021/06/08 01:35:56;;;;;;;11.52;3.40;;;25.30;44.30;;;;;;4343992;32;20090;-39
2021/06/08 01:38:23;;;;;;;8.38;3.67;;;25.40;44.00;;;;;;4343972;32;20133;-39
2021/06/08 01:40:50;;;;;;;20.85;6.37;;;25.50;43.60;;;;;;4344713;32;20074;-38
2021/06/08 01:43:18;;;;;;;18.67;5.68;;;25.70;43.60;;;;;;4344410;32;20063;-40
2021/06/08 01:45:50;;;;;;;25.17;5.95;;;25.80;43.00;;;;;;4357876;32;20177;-44
2021/06/08 01:48:17;;;;;;;25.70;5.90;;;26.00;43.00;;;;;;4332091;32;20522;-39
2021/06/08 01:50:48;;;;;;;22.67;5.87;;;26.10;42.90;;;;;;4343703;32;20154;-39
2021/06/08 01:53:47;;;;;;;19.30;5.20;;;26.20;43.30;;;;;;4344315;32;20077;-46
2021/06/08 01:56:14;;;;;;;15.68;6.45;;;26.30;43.00;;;;;;4335742;32;20074;-39
2021/06/08 01:59:09;;;;;;;17.92;5.68;;;26.50;42.10;;;;;;4345304;32;20143;-38
2021/06/08 02:02:07;;;;;;;30.48;6.95;;;26.60;41.90;;;;;;4347217;32;20169;-38
2021/06/08 02:04:45;;;;;;;21.20;5.57;;;26.70;41.60;;;;;;4360353;32;20146;-38
2021/06/08 02:08:03;;;;;;;18.48;6.30;;;26.80;41.50;;;;;;4360731;32;20459;-38
2021/06/08 02:10:41;;;;;;;30.60;7.53;;;26.80;41.50;;;;;;4345383;32;20071;-39
2021/06/08 02:13:47;;;;;;;18.52;5.82;;;26.90;41.80;;;;;;4325644;33;20058;-39
2021/06/08 02:16:34;;;;;;;18.20;5.00;;;27.10;41.80;;;;;;4311359;33;20082;-38
2021/06/08 02:19:00;;;;;;;24.60;6.03;;;27.30;41.70;;;;;;4318301;33;20055;-38
2021/06/08 02:21:37;;;;;;;23.58;5.43;;;27.40;41.50;;;;;;4317270;33;20058;-38
2021/06/08 02:24:04;;;;;;;19.30;4.55;;;27.60;41.60;;;;;;4317053;33;20603;-38
2021/06/08 02:26:31;;;;;;;20.35;5.93;;;27.80;41.10;;;;;;4330659;33;20075;-39
2021/06/08 02:28:57;;;;;;;18.25;5.87;;;28.00;41.00;;;;;;4317253;33;20086;-39
2021/06/08 02:31:24;;;;;;;26.67;4.40;;;28.20;41.00;;;;;;4316913;33;20512;-38
2021/06/08 02:33:51;;;;;;;13.40;4.68;;;28.40;40.80;;;;;;4316912;33;20154;-38
2021/06/08 02:36:18;;;;;;;19.17;5.62;;;28.60;40.70;;;;;;4317171;33;20063;-38
2021/06/08 02:38:45;;;;;;;17.90;4.47;;;28.70;40.30;;;;;;4330933;33;20524;-38
2021/06/08 02:41:12;;;;;;;14.43;4.37;;;28.80;40.30;;;;;;4330825;33;20066;-38
2021/06/08 02:43:39;;;;;;;16.60;4.50;;;28.80;40.90;;;;;;4317025;33;20059;-38
2021/06/08 02:46:06;;;;;;;13.95;3.65;;;28.90;40.80;;;;;;4316981;33;20152;-39
2021/06/08 02:48:33;;;;;;;37.47;8.93;;;29.10;40.30;;;;;;4286899;33;20080;-40
2021/06/08 02:50:59;;;;;;;12.30;3.83;;;29.20;40.40;;;;;;4286732;33;20108;-39
2021/06/08 02:53:26;;;;;;;11.30;3.78;;;29.50;40.30;;;;;;4275303;33;20076;-40
2021/06/08 02:55:53;;;;;;;14.07;3.72;;;29.60;40.10;;;;;;4275121;33;20616;-39
2021/06/08 02:58:20;;;;;;;20.42;4.45;;;29.80;39.50;;;;;;4298879;33;20075;-40
2021/06/08 03:00:47;;;;;;;16.50;3.92;;;30.00;39.10;;;;;;4286761;33;20072;-40
2021/06/08 03:03:27;;;;;;;7.53;3.37;;;30.10;38.60;;;;;;4298552;33;20054;-40
2021/06/08 03:06:02;;;;;;;14.52;3.72;;;30.30;38.00;;;;;;4286973;33;20161;-39
2021/06/08 03:08:59;;;;;;;20.58;3.78;;;30.60;37.80;;;;;;4287111;33;20091;-41
2021/06/08 03:11:32;;;;;;;10.93;2.95;;;30.80;37.80;;;;;;4295752;33;20182;-40
2021/06/08 03:13:58;;;;;;;11.15;2.55;;;31.10;37.30;;;;;;4309350;33;20075;-40
2021/06/08 03:16:30;;;;;;;11.70;3.87;;;31.40;36.70;;;;;;4315584;33;20186;-40
2021/06/08 03:19:06;;;;;;;24.58;5.85;;;31.80;36.20;;;;;;4299261;32;20543;-40
2021/06/08 03:21:41;;;;;;;8.15;3.60;;;32.10;35.40;;;;;;4347080;32;20070;-41
2021/06/08 03:24:09;;;;;;;14.57;4.78;;;32.50;34.30;;;;;;4359872;32;20063;-41
2021/06/08 03:26:36;;;;;;;12.65;4.75;;;32.90;33.50;;;;;;4359582;32;20069;-41
2021/06/08 03:29:06;;;;;;;11.98;4.47;;;33.40;32.90;;;;;;4345385;32;20116;-41
2021/06/08 03:31:35;;;;;;;15.45;4.50;;;33.80;32.20;;;;;;4345613;32;20526;-41
2021/06/08 03:34:02;;;;;;;13.15;4.57;;;34.20;31.80;;;;;;4345683;32;20063;-41
2021/06/08 03:36:28;;;;;;;13.82;4.45;;;34.60;30.90;;;;;;4359731;32;20165;-41
2021/06/08 03:38:55;;;;;;;14.25;5.80;;;35.10;30.40;;;;;;4333384;32;20082;-41
2021/06/08 03:41:22;;;;;;;10.48;4.55;;;35.30;30.00;;;;;;4345391;32;20160;-41
2021/06/08 03:43:49;;;;;;;16.83;5.82;;;35.40;30.00;;;;;;4345443;32;20066;-41
2021/06/08 03:46:16;;;;;;;12.52;5.60;;;35.50;29.80;;;;;;4345598;32;20067;-40
2021/06/08 03:48:42;;;;;;;16.80;6.07;;;35.50;29.00;;;;;;4359267;32;20553;-41
2021/06/08 03:51:10;;;;;;;17.12;5.55;;;35.60;29.20;;;;;;4332915;32;20070;-41
2021/06/08 03:53:40;;;;;;;13.50;5.40;;;35.60;29.00;;;;;;4359092;32;20060;-41
2021/06/08 03:56:11;;;;;;;16.83;5.72;;;35.70;28.90;;;;;;4359047;32;20094;-41
2021/06/08 03:58:38;;;;;;;8.32;3.47;;;35.80;28.60;;;;;;4345219;32;20101;-42
2021/06/08 04:01:05;;;;;;;10.88;3.25;;;36.00;29.70;;;;;;4345225;32;20068;-41
2021/06/08 04:03:34;;;;;;;3.95;2.78;;;36.10;29.60;;;;;;4345628;32;20527;-41
2021/06/08 04:06:04;;;;;;;8.23;3.65;;;36.10;29.50;;;;;;4345550;32;20058;-41
2021/06/08 04:08:30;;;;;;;10.75;3.92;;;36.10;29.40;;;;;;4345541;32;20065;-41
2021/06/08 04:10:57;;;;;;;15.27;3.85;;;36.10;29.30;;;;;;4332956;32;20154;-41
2021/06/08 04:13:23;;;;;;;12.93;4.62;;;36.10;29.50;;;;;;4351005;32;20109;-41
2021/06/08 04:15:50;;;;;;;15.85;4.50;;;36.10;29.20;;;;;;4297157;33;20115;-41
2021/06/08 04:18:17;;;;;;;11.77;3.50;;;36.30;29.40;;;;;;4285379;33;20065;-41
2021/06/08 04:20:43;;;;;;;7.20;3.00;;;36.40;29.60;;;;;;4297779;33;20064;-41
2021/06/08 04:23:10;;;;;;;10.18;2.75;;;36.60;29.50;;;;;;4296507;33;20079;-42
2021/06/08 04:25:36;;;;;;;6.37;2.80;;;36.80;29.10;;;;;;4297436;33;20068;-42
2021/06/08 04:28:03;;;;;;;10.05;3.33;;;36.80;29.00;;;;;;4297433;33;20059;-41
2021/06/08 04:30:31;;;;;;;5.30;3.03;;;36.90;28.80;;;;;;4297615;33;20087;-41
2021/06/08 04:32:57;;;;;;;17.30;4.10;;;36.90;28.80;;;;;;4285355;33;20091;-42
2021/06/08 04:35:24;;;;;;;13.90;3.87;;;37.00;28.70;;;;;;4285296;33;20088;-42
2021/06/08 04:37:50;;;;;;;9.43;3.55;;;37.00;28.30;;;;;;4284847;33;20075;-41
2021/06/08 04:40:17;;;;;;;9.32;4.65;;;37.00;28.60;;;;;;4296943;33;20090;-40
2021/06/08 04:42:46;;;;;;;15.10;5.35;;;37.00;28.40;;;;;;4297028;33;20163;-41
2021/06/08 04:45:13;;;;;;;11.40;4.47;;;37.20;28.60;;;;;;4297233;33;20080;-42
2021/06/08 04:47:40;;;;;;;11.18;4.03;;;37.20;28.40;;;;;;4336162;33;20073;-45
2021/06/08 04:50:12;;;;;;;9.82;2.33;;;37.20;28.10;;;;;;4344018;32;20084;-42
2021/06/08 04:52:39;;;;;;;9.43;2.33;;;37.30;27.60;;;;;;4343666;33;20074;-42
2021/06/08 04:55:07;;;;;;;7.12;2.17;;;37.40;27.40;;;;;;4343866;32;20043;-42
2021/06/08 04:57:34;;;;;;;10.77;2.25;;;37.60;27.20;;;;;;4343450;33;20451;-42
2021/06/08 05:00:18;;;;;;;4.50;1.70;;;37.70;27.10;;;;;;4317354;33;20062;-42
2021/06/08 05:03:05;;;;;;;;;;;37.90;26.90;;;;;;4330207;33;20070;-42
2021/06/08 05:05:32;;;;;;;6.22;1.42;;;38.10;27.10;;;;;;4329910;33;19974;-42
2021/06/08 05:08:13;;;;;;;7.82;1.10;;;38.40;26.00;;;;;;4317442;33;20226;-43
2021/06/08 05:11:13;;;;;;;5.32;1.00;;;38.60;25.80;;;;;;4329786;33;20074;-42
2021/06/08 05:13:42;;;;;;;6.50;1.62;;;38.70;25.60;;;;;;4342153;32;20055;-41
2021/06/08 05:16:09;;;;;;;8.98;2.58;;;38.80;26.30;;;;;;4332140;32;20132;-42
2021/06/08 05:18:37;;;;;;;12.90;3.58;;;38.90;26.40;;;;;;4344134;32;20089;-41
2021/06/08 05:21:05;;;;;;;13.40;3.08;;;39.00;26.50;;;;;;4332227;32;20097;-43
2021/06/08 05:23:33;;;;;;;9.82;2.60;;;39.00;26.70;;;;;;4344418;32;20081;-42
2021/06/08 05:26:00;;;;;;;7.22;2.22;;;39.00;26.50;;;;;;4344270;32;20176;-42
2021/06/08 05:28:27;;;;;;;6.43;1.40;;;39.10;26.10;;;;;;4319488;32;20626;-42
2021/06/08 05:30:53;;;;;;;4.03;1.48;;;39.20;26.30;;;;;;4343933;32;20070;-42
2021/06/08 05:33:24;;;;;;;4.47;1.80;;;39.30;25.80;;;;;;4357719;32;20078;-42
2021/06/08 05:35:57;;;;;;;7.97;1.10;;;39.70;25.40;;;;;;4358191;32;20163;-42
2021/06/08 05:38:37;;;;;;;8.75;1.73;;;40.10;24.80;;;;;;4358167;32;20518;-42
2021/06/08 05:41:12;;;;;;;5.95;0.80;;;40.50;24.60;;;;;;4357855;32;20062;-43
2021/06/08 05:43:38;;;;;;;3.58;0.90;;;40.60;23.80;;;;;;4357661;32;20061;-42
2021/06/08 05:46:06;;;;;;;6.25;0.70;;;40.50;23.60;;;;;;4357932;32;20073;-41
2021/06/08 05:48:33;;;;;;;4.53;0.75;;;40.40;23.30;;;;;;4357568;32;20543;-41
2021/06/08 05:51:01;;;;;;;4.90;0.50;;;40.30;23.30;;;;;;4357943;32;20607;-41
2021/06/08 05:53:27;;;;;;;3.53;0.40;;;40.30;22.60;;;;;;4343872;32;20110;-41
2021/06/08 05:55:55;;;;;;;8.38;1.70;;;40.50;22.00;;;;;;4343697;32;20071;-42
2021/06/08 05:58:29;;;;;;;9.43;2.42;;;40.80;24.90;;;;;;4343576;32;20104;-41
2021/06/08 06:00:57;;;;;;;5.65;2.20;;;40.90;25.70;;;;;;4357916;32;20102;-42
2021/06/08 06:03:24;;;;;;;9.15;3.22;;;40.80;26.10;;;;;;4357483;32;20619;-41
2021/06/08 06:05:51;;;;;;;4.50;1.95;;;40.60;26.10;;;;;;4357362;32;20085;-41
2021/06/08 06:08:18;;;;;;;6.22;2.30;;;40.30;26.30;;;;;;4343633;32;20132;-41
2021/06/08 06:10:46;;;;;;;7.97;2.45;;;40.10;27.10;;;;;;4343808;32;20070;-41
2021/06/08 06:13:22;;;;;;;8.18;2.55;;;40.00;27.40;;;;;;4336687;33;20554;-42
2021/06/08 06:15:49;;;;;;;6.93;2.55;;;39.80;27.80;;;;;;4342574;33;20074;-42
2021/06/08 06:18:17;;;;;;;13.77;3.87;;;39.60;27.50;;;;;;4316994;33;20101;-42
2021/06/08 06:20:48;;;;;;;11.00;3.72;;;39.40;27.70;;;;;;4328941;33;20101;-42
2021/06/08 06:23:18;;;;;;;10.25;2.90;;;39.20;27.70;;;;;;4329210;33;20070;-42
2021/06/08 06:25:45;;;;;;;7.30;2.20;;;38.80;27.90;;;;;;4342277;32;20164;-41
2021/06/08 06:28:13;;;;;;;6.65;3.12;;;38.50;27.30;;;;;;4329134;33;20055;-41
2021/06/08 06:30:40;;;;;;;14.48;3.90;;;38.20;27.80;;;;;;4329330;33;20074;-42
2021/06/08 06:33:07;;;;;;;9.55;1.95;;;38.10;28.30;;;;;;4311337;33;20088;-41
2021/06/08 06:35:34;;;;;;;8.50;3.05;;;37.90;27.70;;;;;;4324014;33;20066;-41
2021/06/08 06:38:03;;;;;;;4.95;1.30;;;37.90;27.90;;;;;;4324306;33;20087;-41
2021/06/08 06:40:30;;;;;;;8.25;1.20;;;37.90;27.50;;;;;;4313297;33;20461;-41
2021/06/08 06:43:05;;;;;;;7.15;1.20;;;38.00;26.90;;;;;;4323724;33;20597;-42
2021/06/08 06:45:33;;;;;;;6.47;1.12;;;38.00;27.20;;;;;;4312778;33;20526;-42
2021/06/08 06:48:03;;;;;;;1.70;1.00;;;38.00;27.10;;;;;;4316076;33;20657;-42
2021/06/08 06:50:37;;;;;;;5.35;0.98;;;38.20;25.80;;;;;;4326306;33;20076;-42
2021/06/08 06:53:04;;;;;;;3.20;0.82;;;38.40;25.40;;;;;;4314409;33;20075;-42
2021/06/08 06:55:31;;;;;;;2.25;0.60;;;38.80;25.80;;;;;;4326427;33;20094;-42
2021/06/08 06:57:58;;;;;;;2.50;0.70;;;39.10;24.50;;;;;;4315732;33;20079;-41
2021/06/08 07:00:26;;;;;;;4.07;0.50;;;39.40;23.70;;;;;;4313918;33;20056;-42
2021/06/08 07:02:57;;;;;;;4.93;0.40;;;39.70;22.80;;;;;;4315351;33;20056;-43
2021/06/08 07:05:26;;;;;;;2.97;0.35;;;40.00;22.50;;;;;;4326143;33;20102;-42
2021/06/08 07:07:52;;;;;;;4.82;0.77;;;40.30;22.00;;;;;;4313984;33;20170;-42
2021/06/08 07:10:22;;;;;;;11.80;3.37;;;40.60;23.80;;;;;;4326014;33;20086;-42
2021/06/08 07:12:48;;;;;;;9.32;2.40;;;40.70;26.20;;;;;;4318201;33;20149;-42
2021/06/08 07:15:23;;;;;;;5.70;3.08;;;40.70;26.70;;;;;;4340544;33;20062;-41
2021/06/08 07:17:50;;;;;;;8.82;3.12;;;40.60;26.80;;;;;;4340871;33;20056;-42
2021/06/08 07:20:18;;;;;;;9.63;4.43;;;40.40;27.40;;;;;;4330180;33;20064;-42
2021/06/08 07:22:45;;;;;;;14.73;4.32;;;40.10;27.70;;;;;;4340803;33;20047;-42
2021/06/08 07:25:11;;;;;;;7.45;3.47;;;39.90;27.80;;;;;;4341172;33;20146;-42
2021/06/08 07:27:38;;;;;;;8.32;3.72;;;39.60;28.10;;;;;;4341127;33;20060;-42
2021/06/08 07:30:08;;;;;;;7.37;3.45;;;39.30;28.30;;;;;;4329478;33;20102;-41
2021/06/08 07:33:04;;;;;;;11.30;4.37;;;38.90;28.10;;;;;;4343194;33;20125;-43
2021/06/08 07:35:52;;;;;;;13.45;4.15;;;38.50;28.20;;;;;;4344341;33;20157;-44
2021/06/08 07:38:44;;;;;;;9.30;2.50;;;38.10;28.30;;;;;;4344354;32;20452;-43
2021/06/08 07:41:14;;;;;;;11.98;2.62;;;37.80;27.70;;;;;;4344837;33;20082;-43
2021/06/08 07:43:57;;;;;;;9.25;2.08;;;37.50;28.10;;;;;;4343514;33;20062;-42
2021/06/08 07:46:24;;;;;;;4.87;2.00;;;37.30;27.90;;;;;;4343588;33;20070;-42
2021/06/08 07:48:53;;;;;;;7.87;2.45;;;37.10;27.80;;;;;;4331069;33;20168;-45
2021/06/08 07:51:19;;;;;;;6.97;3.30;;;37.00;27.80;;;;;;4342771;33;20067;-43
2021/06/08 07:53:46;;;;;;;4.45;1.92;;;37.00;27.80;;;;;;4330915;33;20135;-43
2021/06/08 07:56:12;;;;;;;5.82;1.40;;;37.00;27.30;;;;;;4331048;33;20070;-43
2021/06/08 07:58:39;;;;;;;5.70;0.98;;;37.10;27.00;;;;;;4330605;33;20071;-43
2021/06/08 08:01:07;;;;;;;7.25;1.10;;;37.10;26.80;;;;;;4342509;33;20483;-44
2021/06/08 08:03:33;;;;;;;5.65;0.88;;;37.00;26.50;;;;;;4330846;33;20500;-43
2021/06/08 08:06:08;;;;;;;1.65;0.88;;;37.10;26.70;;;;;;4302356;33;20169;-43
2021/06/08 08:08:35;;;;;;;4.37;0.70;;;37.00;26.90;;;;;;4326639;33;20792;-41
2021/06/08 08:11:15;;;;;;;3.47;0.85;;;37.00;26.90;;;;;;4326782;33;20129;-42
2021/06/08 08:13:46;;;;;;;3.67;0.95;;;37.00;26.80;;;;;;4317151;33;20083;-43
2021/06/08 08:16:13;;;;;;;1.60;0.60;;;37.10;26.70;;;;;;4312216;33;20209;-43
2021/06/08 08:18:42;;;;;;;5.05;0.80;;;37.20;25.70;;;;;;4312234;33;20321;-42
2021/06/08 08:21:10;;;;;;;5.85;1.02;;;37.10;25.60;;;;;;4300213;33;20091;-42
2021/06/08 08:23:37;;;;;;;2.65;0.88;;;36.90;26.20;;;;;;4312237;33;20181;-41
2021/06/08 08:26:06;;;;;;;3.58;1.08;;;36.80;26.10;;;;;;4312107;33;20517;-42
2021/06/08 08:28:34;;;;;;;6.40;1.50;;;36.80;25.70;;;;;;4312119;33;20619;-41
2021/06/08 08:31:06;;;;;;;2.42;1.30;;;36.80;25.70;;;;;;4311860;33;20546;-42
2021/06/08 08:33:33;;;;;;;2.55;0.77;;;36.80;25.30;;;;;;4311621;33;20076;-41
2021/06/08 08:36:00;;;;;;;3.90;1.02;;;36.80;25.60;;;;;;4301207;33;20083;-42
2021/06/08 08:38:29;;;;;;;9.45;0.70;;;36.80;25.40;;;;;;4328957;33;20055;-42
2021/06/08 08:40:59;;;;;;;6.40;0.70;;;36.80;25.10;;;;;;4328856;33;20067;-41
2021/06/08 08:43:26;;;;;;;3.97;0.80;;;36.90;25.20;;;;;;4327197;33;20063;-42
2021/06/08 08:45:53;;;;;;;8.48;1.20;;;37.10;25.30;;;;;;4328811;33;20071;-41
2021/06/08 08:48:20;;;;;;;8.35;1.73;;;37.30;25.30;;;;;;4328933;33;20056;-42
2021/06/08 08:50:48;;;;;;;8.65;1.20;;;37.60;25.10;;;;;;4328905;33;20071;-42
2021/06/08 08:53:21;;;;;;;1.98;0.60;;;37.80;25.10;;;;;;4329049;33;20151;-42
2021/06/08 08:55:47;;;;;;;6.85;1.80;;;38.00;24.40;;;;;;4329229;33;20507;-41
2021/06/08 08:58:15;;;;;;;4.60;1.10;;;38.20;24.40;;;;;;4328971;33;20062;-41
2021/06/08 09:00:42;;;;;;;2.70;1.33;;;38.40;24.30;;;;;;4327027;33;20133;-43
2021/06/08 09:03:09;;;;;;;8.15;1.23;;;38.70;24.90;;;;;;4327290;33;20195;-43
2021/06/08 09:05:38;;;;;;;3.50;0.43;;;39.00;25.40;;;;;;4302457;33;20094;-42
2021/06/08 09:08:06;;;;;;;5.30;0.85;;;39.30;23.20;;;;;;4326565;33;20195;-41
2021/06/08 09:10:34;;;;;;;4.53;1.02;;;39.60;25.20;;;;;;4314729;33;20072;-42
2021/06/08 09:13:00;;;;;;;3.17;0.47;;;39.80;24.90;;;;;;4332316;33;20511;-41
2021/06/08 09:15:27;;;;;;;4.70;0.88;;;40.00;24.40;;;;;;4343324;32;20051;-41
2021/06/08 09:17:57;;;;;;;4.40;0.62;;;40.20;25.00;;;;;;4343332;33;20059;-42
2021/06/08 09:20:25;;;;;;;13.98;0.90;;;40.30;23.40;;;;;;4343340;32;20070;-40
2021/06/08 09:22:55;;;;;;;3.05;0.47;;;40.20;23.90;;;;;;4342954;32;20106;-41
2021/06/08 09:25:50;;;;;;;3.08;0.55;;;39.90;24.10;;;;;;4343232;33;20455;-41
2021/06/08 09:28:31;;;;;;;9.77;0.60;;;39.70;24.80;;;;;;4343579;32;20132;-40
2021/06/08 09:31:23;;;;;;;7.10;0.68;;;39.60;24.30;;;;;;4342726;32;20153;-42
2021/06/08 09:33:57;;;;;;;2.25;0.50;;;39.60;24.30;;;;;;4354100;32;20167;-41
2021/06/08 09:36:28;;;;;;;1.10;0.40;;;39.70;24.00;;;;;;4358071;32;20581;-41
2021/06/08 09:39:03;;;;;;;1.12;0.60;;;39.80;24.00;;;;;;4344232;32;20069;-42
2021/06/08 09:41:41;;;;;;;3.45;0.65;;;39.90;25.30;;;;;;4357642;32;20497;-43
2021/06/08 09:44:10;;;;;;;5.22;0.85;;;40.00;24.60;;;;;;4358065;32;20146;-41
2021/06/08 09:46:52;;;;;;;3.80;0.68;;;40.00;24.60;;;;;;4358068;32;20097;-42
2021/06/08 09:49:35;;;;;;;3.10;0.65;;;40.00;23.90;;;;;;4357554;32;20086;-42
2021/06/08 09:52:04;;;;;;;3.20;0.70;;;40.10;23.30;;;;;;4357522;32;20059;-41
2021/06/08 09:54:36;;;;;;;2.00;0.45;;;40.20;23.30;;;;;;4357789;32;20055;-41
2021/06/08 09:57:28;;;;;;;2.12;0.52;;;40.20;22.60;;;;;;4344392;32;20558;-41
2021/06/08 09:59:59;;;;;;;3.42;0.70;;;40.50;22.50;;;;;;4357484;32;20220;-42
2021/06/08 10:02:40;;;;;;;3.70;0.52;;;40.60;21.50;;;;;;4357784;32;20066;-42
2021/06/08 10:05:17;;;;;;;5.45;0.85;;;40.70;21.50;;;;;;4357778;32;20570;-42
2021/06/08 10:07:43;;;;;;;4.82;1.17;;;40.70;22.10;;;;;;4343763;32;20448;-42
2021/06/08 10:10:15;;;;;;;5.32;0.65;;;40.70;22.00;;;;;;4357636;32;20050;-42
2021/06/08 10:13:07;;;;;;;6.53;0.60;;;40.60;21.60;;;;;;4353873;32;20107;-42
2021/06/08 10:15:35;;;;;;;3.12;0.77;;;40.50;22.00;;;;;;4343032;33;20503;-42
2021/06/08 10:18:07;;;;;;;7.10;1.30;;;40.50;22.10;;;;;;4342699;33;20098;-42
2021/06/08 10:20:41;;;;;;;2.05;0.70;;;40.60;21.80;;;;;;4344637;33;20078;-43
2021/06/08 10:23:29;;;;;;;3.45;0.75;;;41.00;21.70;;;;;;4345777;32;20058;-46
2021/06/08 10:25:58;;;;;;;3.80;0.60;;;41.20;21.90;;;;;;4345514;32;20142;-43
2021/06/08 10:28:27;;;;;;;1.42;0.70;;;41.40;21.90;;;;;;4345342;33;20471;-43
2021/06/08 10:30:54;;;;;;;3.35;0.50;;;41.40;21.60;;;;;;4345196;32;20451;-43
2021/06/08 10:33:22;;;;;;;3.25;0.65;;;41.30;21.80;;;;;;4345467;32;20070;-42
2021/06/08 10:35:49;;;;;;;6.07;0.85;;;41.20;23.60;;;;;;4346024;32;20079;-42
2021/06/08 10:38:16;;;;;;;3.70;0.70;;;41.00;24.60;;;;;;4345147;32;20075;-42
2021/06/08 10:40:43;;;;;;;5.55;0.70;;;40.50;25.20;;;;;;4345326;33;20587;-41
2021/06/08 10:43:22;;;;;;;4.25;0.93;;;39.90;25.80;;;;;;4345282;32;20063;-41
2021/06/08 10:45:55;;;;;;;3.72;1.00;;;39.40;25.50;;;;;;4331559;33;20062;-42
2021/06/08 10:48:37;;;;;;;2.10;0.70;;;38.90;25.90;;;;;;4345028;33;20083;-43
2021/06/08 10:51:21;;;;;;;2.42;0.70;;;38.80;25.50;;;;;;4345211;32;20145;-42
2021/06/08 10:53:56;;;;;;;3.97;0.98;;;38.70;25.50;;;;;;4345345;33;20145;-42
2021/06/08 10:56:23;;;;;;;1.95;0.60;;;38.80;25.80;;;;;;4345751;32;20059;-42
2021/06/08 10:58:51;;;;;;;3.50;0.65;;;39.10;25.60;;;;;;4345080;32;20089;-42
2021/06/08 11:01:41;;;;;;;2.33;0.75;;;39.50;24.40;;;;;;4344629;33;20066;-42
2021/06/08 11:04:23;;;;;;;1.60;0.73;;;39.90;24.30;;;;;;4336062;32;20147;-42
2021/06/08 11:06:58;;;;;;;8.02;0.90;;;40.10;22.30;;;;;;4344736;32;20137;-43
2021/06/08 11:09:24;;;;;;;7.35;0.70;;;40.20;22.50;;;;;;4345001;32;20062;-43
2021/06/08 11:11:56;;;;;;;6.93;0.85;;;40.20;21.80;;;;;;4345036;32;20073;-41
2021/06/08 11:14:33;;;;;;;3.05;0.60;;;40.10;21.50;;;;;;4345768;32;20489;-42
2021/06/08 11:17:01;;;;;;;3.12;0.93;;;40.20;21.60;;;;;;4359387;32;20081;-42
2021/06/08 11:19:55;;;;;;;3.97;0.50;;;40.20;21.80;;;;;;4360086;32;20171;-42
2021/06/08 11:22:42;;;;;;;3.50;0.55;;;40.20;21.50;;;;;;4359906;32;20072;-42
2021/06/08 11:25:39;;;;;;;2.10;0.60;;;40.00;21.30;;;;;;4351510;32;20069;-42
2021/06/08 11:28:43;;;;;;;0.40;0.30;;;39.90;21.20;;;;;;4359534;32;20065;-42
2021/06/08 11:31:10;;;;;;;2.78;0.30;;;39.80;21.20;;;;;;4345253;32;20063;-41
2021/06/08 11:33:39;;;;;;;2.35;0.50;;;39.90;21.10;;;;;;4359483;32;20070;-41
2021/06/08 11:36:24;;;;;;;1.12;0.50;;;39.90;21.60;;;;;;4346031;32;20070;-41
2021/06/08 11:38:53;;;;;;;1.20;0.52;;;40.00;21.60;;;;;;4358690;32;20550;-41
2021/06/08 11:41:19;;;;;;;3.35;0.80;;;40.00;21.60;;;;;;4358996;32;20139;-41
2021/06/08 11:43:51;;;;;;;3.03;0.40;;;40.20;21.80;;;;;;4359165;32;20581;-42
2021/06/08 11:46:27;;;;;;;0.80;0.30;;;40.20;22.30;;;;;;4359116;32;20614;-41
2021/06/08 11:49:07;;;;;;;6.82;0.80;;;40.40;22.40;;;;;;4359734;32;20065;-42
2021/06/08 11:51:40;;;;;;;1.08;0.30;;;40.40;22.40;;;;;;4326495;33;20186;-42
2021/06/08 11:54:16;;;;;;;3.15;0.98;;;40.20;22.20;;;;;;4327107;33;20066;-42
2021/06/08 11:57:02;;;;;;;2.25;0.75;;;40.00;22.70;;;;;;4326875;33;20146;-42
2021/06/08 11:59:31;;;;;;;6.60;1.48;;;39.80;22.70;;;;;;4327060;33;20078;-43
2021/06/08 12:02:05;;;;;;;3.33;0.60;;;39.50;22.90;;;;;;4315004;33;20618;-41
2021/06/08 12:04:32;;;;;;;1.27;0.47;;;39.20;22.90;;;;;;4326961;33;20074;-42
2021/06/08 12:07:10;;;;;;;1.85;0.40;;;38.80;23.20;;;;;;4314833;33;20161;-40
2021/06/08 12:09:47;;;;;;;2.95;0.52;;;38.50;23.20;;;;;;4326852;33;20225;-41
2021/06/08 12:12:15;;;;;;;0.50;0.20;;;38.40;23.40;;;;;;4313456;33;20205;-40
2021/06/08 12:14:54;;;;;;;1.83;0.40;;;38.10;23.20;;;;;;4312338;33;20622;-41
2021/06/08 12:17:21;;;;;;;0.95;0.30;;;37.80;23.30;;;;;;4312191;33;20071;-41
2021/06/08 12:19:47;;;;;;;0.93;0.68;;;37.60;23.40;;;;;;4299975;33;20187;-42
2021/06/08 12:22:23;;;;;;;4.97;1.02;;;37.40;23.60;;;;;;4323352;32;20082;-42
2021/06/08 12:25:06;;;;;;;1.48;0.52;;;37.30;23.70;;;;;;4343802;33;20102;-42
2021/06/08 12:27:38;;;;;;;2.33;0.60;;;37.20;23.80;;;;;;4344102;33;20252;-41
2021/06/08 12:30:11;;;;;;;4.40;0.52;;;37.20;23.90;;;;;;4314479;33;20229;-40
2021/06/08 12:32:40;;;;;;;5.65;0.45;;;37.00;23.50;;;;;;4326107;33;20064;-40
2021/06/08 12:35:34;;;;;;;2.78;0.50;;;37.00;23.60;;;;;;4326184;33;20676;-41
2021/06/08 12:38:22;;;;;;;0.75;0.28;;;37.00;24.00;;;;;;4326684;33;20086;-41
2021/06/08 12:41:10;;;;;;;1.02;0.20;;;37.10;23.90;;;;;;4326135;33;20198;-42
2021/06/08 12:43:43;;;;;;;5.10;0.40;;;37.10;23.20;;;;;;4313768;33;20222;-42
2021/06/08 12:46:10;;;;;;;1.27;0.40;;;37.10;23.40;;;;;;4326314;33;20078;-40
2021/06/08 12:48:36;;;;;;;2.90;0.45;;;37.10;23.50;;;;;;4313795;33;20566;-41
2021/06/08 12:51:13;;;;;;;1.30;0.45;;;37.10;23.80;;;;;;4325906;33;20161;-41
2021/06/08 12:53:39;;;;;;;1.75;0.40;;;37.10;23.70;;;;;;4325929;33;20071;-42
2021/06/08 12:56:06;;;;;;;0.95;0.40;;;37.20;23.50;;;;;;4325938;33;20510;-41
2021/06/08 12:58:33;;;;;;;2.28;0.57;;;37.20;23.40;;;;;;4326098;33;20078;-41
2021/06/08 13:01:00;;;;;;;2.37;0.40;;;37.20;23.30;;;;;;4307599;33;20231;-42
2021/06/08 13:03:26;;;;;;;1.23;0.47;;;37.20;23.20;;;;;;4311769;33;20548;-40